sensor_id;sensor_type;location;lat;lon;timestamp;P1;durP1;ratioP1;P2;durP2;ratioP2
54959;SDS011;40860;51.710;8.736;2022-10-16T00:02:07;4.03;;;2.92;;
54959;SDS011;40860;51.710;8.736;2022-10-16T00:06:10;3.92;;;3.10;;
54959;SDS011;40860;51.710;8.736;2022-10-16T00:10:14;4.07;;;3.20;;
54959;SDS011;40860;51.710;8.736;2022-10-16T00:14:17;5.55;;;3.65;;
54959;SDS011;40860;51.710;8.736;2022-10-16T00:18:21;5.20;;;3.70;;
54959;SDS011;40860;51.710;8.736;2022-10-16T00:22:24;3.75;;;3.33;;
54959;SDS011;40860;51.710;8.736;2022-10-16T00:26:28;5.38;;;3.45;;
54959;SDS011;40860;51.710;8.736;2022-10-16T00:30:32;3.35;;;3.05;;
54959;SDS011;40860;51.710;8.736;2022-10-16T00:34:36;3.40;;;2.92;;
54959;SDS011;40860;51.710;8.736;2022-10-16T00:38:40;5.75;;;2.95;;
54959;SDS011;40860;51.710;8.736;2022-10-16T00:42:42;4.68;;;3.22;;
54959;SDS011;40860;51.710;8.736;2022-10-16T00:46:45;5.63;;;3.20;;
54959;SDS011;40860;51.710;8.736;2022-10-16T00:50:50;6.07;;;2.58;;
54959;SDS011;40860;51.710;8.736;2022-10-16T00:54:53;3.25;;;2.50;;
54959;SDS011;40860;51.710;8.736;2022-10-16T00:58:57;4.70;;;2.70;;
54959;SDS011;40860;51.710;8.736;2022-10-16T01:03:02;3.60;;;2.35;;
54959;SDS011;40860;51.710;8.736;2022-10-16T01:07:09;3.95;;;2.50;;
54959;SDS011;40860;51.710;8.736;2022-10-16T01:11:17;5.63;;;2.63;;
54959;SDS011;40860;51.710;8.736;2022-10-16T01:15:25;5.68;;;2.67;;
54959;SDS011;40860;51.710;8.736;2022-10-16T01:19:36;4.20;;;2.30;;
54959;SDS011;40860;51.710;8.736;2022-10-16T01:23:51;4.03;;;2.13;;
54959;SDS011;40860;51.710;8.736;2022-10-16T01:28:03;3.47;;;2.00;;
54959;SDS011;40860;51.710;8.736;2022-10-16T01:32:10;4.85;;;2.10;;
54959;SDS011;40860;51.710;8.736;2022-10-16T01:36:21;5.30;;;2.05;;
54959;SDS011;40860;51.710;8.736;2022-10-16T01:40:29;2.15;;;1.95;;
54959;SDS011;40860;51.710;8.736;2022-10-16T01:44:36;2.55;;;2.10;;
54959;SDS011;40860;51.710;8.736;2022-10-16T01:48:40;5.07;;;1.90;;
54959;SDS011;40860;51.710;8.736;2022-10-16T01:52:44;3.42;;;1.60;;
54959;SDS011;40860;51.710;8.736;2022-10-16T01:56:49;3.85;;;1.60;;
54959;SDS011;40860;51.710;8.736;2022-10-16T02:00:54;3.97;;;1.67;;
54959;SDS011;40860;51.710;8.736;2022-10-16T02:04:58;3.88;;;1.83;;
54959;SDS011;40860;51.710;8.736;2022-10-16T02:09:06;1.77;;;1.52;;
54959;SDS011;40860;51.710;8.736;2022-10-16T02:13:10;1.88;;;1.58;;
54959;SDS011;40860;51.710;8.736;2022-10-16T02:17:17;2.13;;;1.38;;
54959;SDS011;40860;51.710;8.736;2022-10-16T02:21:22;3.53;;;1.50;;
54959;SDS011;40860;51.710;8.736;2022-10-16T02:25:29;1.30;;;1.20;;
54959;SDS011;40860;51.710;8.736;2022-10-16T02:29:34;2.97;;;1.38;;
54959;SDS011;40860;51.710;8.736;2022-10-16T02:33:43;2.65;;;1.10;;
54959;SDS011;40860;51.710;8.736;2022-10-16T02:37:47;5.68;;;1.10;;
54959;SDS011;40860;51.710;8.736;2022-10-16T02:41:52;1.88;;;1.23;;
54959;SDS011;40860;51.710;8.736;2022-10-16T02:45:55;1.20;;;1.05;;
54959;SDS011;40860;51.710;8.736;2022-10-16T02:49:59;2.05;;;1.02;;
54959;SDS011;40860;51.710;8.736;2022-10-16T02:54:02;3.08;;;1.08;;
54959;SDS011;40860;51.710;8.736;2022-10-16T02:58:05;2.75;;;1.30;;
54959;SDS011;40860;51.710;8.736;2022-10-16T03:02:08;3.55;;;1.20;;
54959;SDS011;40860;51.710;8.736;2022-10-16T03:06:12;2.00;;;1.08;;
54959;SDS011;40860;51.710;8.736;2022-10-16T03:10:15;2.70;;;1.08;;
54959;SDS011;40860;51.710;8.736;2022-10-16T03:14:18;1.75;;;1.02;;
54959;SDS011;40860;51.710;8.736;2022-10-16T03:18:21;1.92;;;1.00;;
54959;SDS011;40860;51.710;8.736;2022-10-16T03:22:25;3.10;;;1.30;;
54959;SDS011;40860;51.710;8.736;2022-10-16T03:26:28;2.97;;;1.17;;
54959;SDS011;40860;51.710;8.736;2022-10-16T03:30:31;2.85;;;1.10;;
54959;SDS011;40860;51.710;8.736;2022-10-16T03:34:34;2.08;;;1.40;;
54959;SDS011;40860;51.710;8.736;2022-10-16T03:38:38;1.42;;;1.10;;
54959;SDS011;40860;51.710;8.736;2022-10-16T03:42:41;2.83;;;1.60;;
54959;SDS011;40860;51.710;8.736;2022-10-16T03:46:45;1.67;;;1.25;;
54959;SDS011;40860;51.710;8.736;2022-10-16T03:50:48;3.33;;;1.50;;
54959;SDS011;40860;51.710;8.736;2022-10-16T03:54:53;3.25;;;1.20;;
54959;SDS011;40860;51.710;8.736;2022-10-16T03:58:56;3.33;;;1.60;;
54959;SDS011;40860;51.710;8.736;2022-10-16T04:02:58;5.03;;;1.38;;
54959;SDS011;40860;51.710;8.736;2022-10-16T04:07:01;1.58;;;1.08;;
54959;SDS011;40860;51.710;8.736;2022-10-16T04:11:06;1.58;;;1.40;;
54959;SDS011;40860;51.710;8.736;2022-10-16T04:15:09;1.27;;;1.17;;
54959;SDS011;40860;51.710;8.736;2022-10-16T04:19:12;2.40;;;1.50;;
54959;SDS011;40860;51.710;8.736;2022-10-16T04:23:15;1.63;;;1.27;;
54959;SDS011;40860;51.710;8.736;2022-10-16T04:27:19;1.42;;;1.00;;
54959;SDS011;40860;51.710;8.736;2022-10-16T04:31:22;2.13;;;0.95;;
54959;SDS011;40860;51.710;8.736;2022-10-16T04:35:25;3.63;;;1.15;;
54959;SDS011;40860;51.710;8.736;2022-10-16T04:39:28;3.25;;;1.00;;
54959;SDS011;40860;51.710;8.736;2022-10-16T04:43:32;2.80;;;1.10;;
54959;SDS011;40860;51.710;8.736;2022-10-16T04:47:35;1.50;;;0.73;;
54959;SDS011;40860;51.710;8.736;2022-10-16T04:51:38;2.83;;;1.23;;
54959;SDS011;40860;51.710;8.736;2022-10-16T04:55:41;2.75;;;1.20;;
54959;SDS011;40860;51.710;8.736;2022-10-16T04:59:46;1.50;;;1.02;;
54959;SDS011;40860;51.710;8.736;2022-10-16T05:03:48;2.70;;;1.20;;
54959;SDS011;40860;51.710;8.736;2022-10-16T05:07:52;1.38;;;1.20;;
54959;SDS011;40860;51.710;8.736;2022-10-16T05:11:55;1.00;;;0.90;;
54959;SDS011;40860;51.710;8.736;2022-10-16T05:15:59;2.65;;;1.00;;
54959;SDS011;40860;51.710;8.736;2022-10-16T05:20:02;2.97;;;0.93;;
54959;SDS011;40860;51.710;8.736;2022-10-16T05:24:05;2.42;;;1.10;;
54959;SDS011;40860;51.710;8.736;2022-10-16T05:28:08;1.23;;;0.85;;
54959;SDS011;40860;51.710;8.736;2022-10-16T05:32:12;2.10;;;1.00;;
54959;SDS011;40860;51.710;8.736;2022-10-16T05:36:15;0.70;;;0.70;;
54959;SDS011;40860;51.710;8.736;2022-10-16T05:40:19;1.30;;;0.80;;
54959;SDS011;40860;51.710;8.736;2022-10-16T05:44:22;1.45;;;0.77;;
54959;SDS011;40860;51.710;8.736;2022-10-16T05:48:27;0.60;;;0.60;;
54959;SDS011;40860;51.710;8.736;2022-10-16T05:52:30;0.80;;;0.70;;
54959;SDS011;40860;51.710;8.736;2022-10-16T05:56:33;0.90;;;0.65;;
54959;SDS011;40860;51.710;8.736;2022-10-16T06:00:36;1.95;;;0.60;;
54959;SDS011;40860;51.710;8.736;2022-10-16T06:04:40;0.75;;;0.70;;
54959;SDS011;40860;51.710;8.736;2022-10-16T06:08:43;2.47;;;0.93;;
54959;SDS011;40860;51.710;8.736;2022-10-16T06:12:47;3.67;;;0.80;;
54959;SDS011;40860;51.710;8.736;2022-10-16T06:16:50;2.63;;;0.85;;
54959;SDS011;40860;51.710;8.736;2022-10-16T06:20:54;1.10;;;0.70;;
54959;SDS011;40860;51.710;8.736;2022-10-16T06:24:59;1.38;;;0.95;;
54959;SDS011;40860;51.710;8.736;2022-10-16T06:29:02;2.40;;;1.00;;
54959;SDS011;40860;51.710;8.736;2022-10-16T06:33:05;1.20;;;1.00;;
54959;SDS011;40860;51.710;8.736;2022-10-16T06:37:09;1.35;;;0.88;;
54959;SDS011;40860;51.710;8.736;2022-10-16T06:41:13;1.50;;;1.10;;
54959;SDS011;40860;51.710;8.736;2022-10-16T06:45:18;2.28;;;0.85;;
54959;SDS011;40860;51.710;8.736;2022-10-16T06:49:21;0.75;;;0.75;;
54959;SDS011;40860;51.710;8.736;2022-10-16T06:53:25;1.80;;;0.85;;
54959;SDS011;40860;51.710;8.736;2022-10-16T06:57:36;2.75;;;0.80;;
54959;SDS011;40860;51.710;8.736;2022-10-16T07:01:38;1.67;;;0.88;;
54959;SDS011;40860;51.710;8.736;2022-10-16T07:05:41;1.73;;;0.95;;
54959;SDS011;40860;51.710;8.736;2022-10-16T07:09:46;2.22;;;0.90;;
54959;SDS011;40860;51.710;8.736;2022-10-16T07:13:49;1.17;;;1.02;;
54959;SDS011;40860;51.710;8.736;2022-10-16T07:17:56;3.13;;;1.33;;
54959;SDS011;40860;51.710;8.736;2022-10-16T07:21:59;1.33;;;1.23;;
54959;SDS011;40860;51.710;8.736;2022-10-16T07:26:03;0.90;;;0.90;;
54959;SDS011;40860;51.710;8.736;2022-10-16T07:30:07;1.35;;;1.23;;
54959;SDS011;40860;51.710;8.736;2022-10-16T07:34:11;1.35;;;1.00;;
54959;SDS011;40860;51.710;8.736;2022-10-16T07:38:15;1.15;;;0.90;;
54959;SDS011;40860;51.710;8.736;2022-10-16T07:42:19;1.45;;;0.70;;
54959;SDS011;40860;51.710;8.736;2022-10-16T07:46:22;1.48;;;1.20;;
54959;SDS011;40860;51.710;8.736;2022-10-16T07:50:25;2.53;;;1.13;;
54959;SDS011;40860;51.710;8.736;2022-10-16T07:54:28;1.77;;;0.70;;
54959;SDS011;40860;51.710;8.736;2022-10-16T07:58:32;1.98;;;0.93;;
54959;SDS011;40860;51.710;8.736;2022-10-16T08:02:38;2.67;;;1.00;;
54959;SDS011;40860;51.710;8.736;2022-10-16T08:06:41;1.00;;;0.70;;
54959;SDS011;40860;51.710;8.736;2022-10-16T08:10:44;1.45;;;0.80;;
54959;SDS011;40860;51.710;8.736;2022-10-16T08:14:49;0.88;;;0.80;;
54959;SDS011;40860;51.710;8.736;2022-10-16T08:18:51;0.77;;;0.70;;
54959;SDS011;40860;51.710;8.736;2022-10-16T08:22:55;0.68;;;0.50;;
54959;SDS011;40860;51.710;8.736;2022-10-16T08:26:58;0.98;;;0.82;;
54959;SDS011;40860;51.710;8.736;2022-10-16T08:31:06;1.17;;;0.88;;
54959;SDS011;40860;51.710;8.736;2022-10-16T08:35:10;0.98;;;0.70;;
54959;SDS011;40860;51.710;8.736;2022-10-16T08:39:15;1.42;;;0.90;;
54959;SDS011;40860;51.710;8.736;2022-10-16T08:43:21;1.23;;;0.73;;
54959;SDS011;40860;51.710;8.736;2022-10-16T08:47:38;1.67;;;1.15;;
54959;SDS011;40860;51.710;8.736;2022-10-16T08:51:47;1.83;;;0.55;;
54959;SDS011;40860;51.710;8.736;2022-10-16T08:55:52;2.15;;;0.70;;
54959;SDS011;40860;51.710;8.736;2022-10-16T08:59:57;0.82;;;0.70;;
54959;SDS011;40860;51.710;8.736;2022-10-16T09:08:49;0.95;;;0.75;;
54959;SDS011;40860;51.710;8.736;2022-10-16T09:13:08;3.92;;;0.80;;
54959;SDS011;40860;51.710;8.736;2022-10-16T09:17:25;1.67;;;0.70;;
54959;SDS011;40860;51.710;8.736;2022-10-16T09:21:35;1.50;;;0.93;;
54959;SDS011;40860;51.710;8.736;2022-10-16T09:25:42;1.45;;;0.98;;
54959;SDS011;40860;51.710;8.736;2022-10-16T09:29:48;1.27;;;0.95;;
54959;SDS011;40860;51.710;8.736;2022-10-16T09:33:55;3.13;;;1.20;;
54959;SDS011;40860;51.710;8.736;2022-10-16T09:38:01;2.38;;;1.00;;
54959;SDS011;40860;51.710;8.736;2022-10-16T09:42:06;2.40;;;1.02;;
54959;SDS011;40860;51.710;8.736;2022-10-16T09:46:19;4.60;;;1.45;;
54959;SDS011;40860;51.710;8.736;2022-10-16T09:50:25;1.80;;;1.20;;
54959;SDS011;40860;51.710;8.736;2022-10-16T09:54:29;1.15;;;1.00;;
54959;SDS011;40860;51.710;8.736;2022-10-16T09:58:33;1.67;;;1.38;;
54959;SDS011;40860;51.710;8.736;2022-10-16T10:02:36;2.22;;;1.20;;
54959;SDS011;40860;51.710;8.736;2022-10-16T10:06:41;1.83;;;0.90;;
54959;SDS011;40860;51.710;8.736;2022-10-16T10:10:46;1.90;;;0.90;;
54959;SDS011;40860;51.710;8.736;2022-10-16T10:14:52;1.35;;;0.90;;
54959;SDS011;40860;51.710;8.736;2022-10-16T10:18:58;2.00;;;1.70;;
54959;SDS011;40860;51.710;8.736;2022-10-16T10:23:01;2.42;;;1.00;;
54959;SDS011;40860;51.710;8.736;2022-10-16T10:27:21;1.08;;;0.98;;
54959;SDS011;40860;51.710;8.736;2022-10-16T10:31:33;1.95;;;1.00;;
54959;SDS011;40860;51.710;8.736;2022-10-16T10:35:43;1.70;;;1.05;;
54959;SDS011;40860;51.710;8.736;2022-10-16T10:39:56;1.95;;;0.80;;
54959;SDS011;40860;51.710;8.736;2022-10-16T10:44:07;1.88;;;0.75;;
54959;SDS011;40860;51.710;8.736;2022-10-16T10:48:26;2.55;;;0.70;;
54959;SDS011;40860;51.710;8.736;2022-10-16T10:52:47;2.17;;;0.80;;
54959;SDS011;40860;51.710;8.736;2022-10-16T10:57:02;2.03;;;0.55;;
54959;SDS011;40860;51.710;8.736;2022-10-16T11:01:09;2.40;;;0.70;;
54959;SDS011;40860;51.710;8.736;2022-10-16T11:05:23;2.25;;;0.77;;
54959;SDS011;40860;51.710;8.736;2022-10-16T11:09:34;2.22;;;0.65;;
54959;SDS011;40860;51.710;8.736;2022-10-16T11:13:42;1.30;;;0.77;;
54959;SDS011;40860;51.710;8.736;2022-10-16T11:17:55;1.45;;;0.60;;
54959;SDS011;40860;51.710;8.736;2022-10-16T11:22:09;3.25;;;0.60;;
54959;SDS011;40860;51.710;8.736;2022-10-16T11:26:17;1.42;;;0.60;;
54959;SDS011;40860;51.710;8.736;2022-10-16T11:30:24;2.42;;;0.90;;
54959;SDS011;40860;51.710;8.736;2022-10-16T11:34:30;1.95;;;0.75;;
54959;SDS011;40860;51.710;8.736;2022-10-16T11:38:41;1.45;;;0.50;;
54959;SDS011;40860;51.710;8.736;2022-10-16T11:42:51;2.08;;;0.80;;
54959;SDS011;40860;51.710;8.736;2022-10-16T11:47:01;2.05;;;0.80;;
54959;SDS011;40860;51.710;8.736;2022-10-16T11:51:34;1.65;;;0.60;;
54959;SDS011;40860;51.710;8.736;2022-10-16T11:55:44;2.63;;;1.27;;
54959;SDS011;40860;51.710;8.736;2022-10-16T11:59:48;1.17;;;0.60;;
54959;SDS011;40860;51.710;8.736;2022-10-16T12:03:58;1.65;;;0.60;;
54959;SDS011;40860;51.710;8.736;2022-10-16T12:08:15;2.10;;;0.60;;
54959;SDS011;40860;51.710;8.736;2022-10-16T12:12:25;1.27;;;0.43;;
54959;SDS011;40860;51.710;8.736;2022-10-16T12:16:36;1.67;;;0.60;;
54959;SDS011;40860;51.710;8.736;2022-10-16T12:20:40;0.98;;;0.60;;
54959;SDS011;40860;51.710;8.736;2022-10-16T12:24:50;1.65;;;0.40;;
54959;SDS011;40860;51.710;8.736;2022-10-16T12:28:55;2.05;;;0.40;;
54959;SDS011;40860;51.710;8.736;2022-10-16T12:33:18;2.45;;;0.63;;
54959;SDS011;40860;51.710;8.736;2022-10-16T12:37:25;2.88;;;0.98;;
54959;SDS011;40860;51.710;8.736;2022-10-16T12:41:30;0.70;;;0.70;;
54959;SDS011;40860;51.710;8.736;2022-10-16T12:45:35;2.60;;;0.55;;
54959;SDS011;40860;51.710;8.736;2022-10-16T12:49:48;1.60;;;0.40;;
54959;SDS011;40860;51.710;8.736;2022-10-16T12:53:58;3.13;;;0.68;;
54959;SDS011;40860;51.710;8.736;2022-10-16T12:58:08;2.00;;;0.60;;
54959;SDS011;40860;51.710;8.736;2022-10-16T13:02:30;3.00;;;0.47;;
54959;SDS011;40860;51.710;8.736;2022-10-16T13:06:48;1.42;;;0.52;;
54959;SDS011;40860;51.710;8.736;2022-10-16T13:11:00;1.48;;;0.68;;
54959;SDS011;40860;51.710;8.736;2022-10-16T13:15:19;1.55;;;0.60;;
54959;SDS011;40860;51.710;8.736;2022-10-16T13:19:32;1.98;;;0.60;;
54959;SDS011;40860;51.710;8.736;2022-10-16T13:23:42;2.10;;;0.50;;
54959;SDS011;40860;51.710;8.736;2022-10-16T13:27:57;1.17;;;0.55;;
54959;SDS011;40860;51.710;8.736;2022-10-16T13:32:09;2.70;;;0.68;;
54959;SDS011;40860;51.710;8.736;2022-10-16T13:36:20;1.27;;;0.60;;
54959;SDS011;40860;51.710;8.736;2022-10-16T13:40:24;1.02;;;0.50;;
54959;SDS011;40860;51.710;8.736;2022-10-16T13:44:35;1.25;;;0.70;;
54959;SDS011;40860;51.710;8.736;2022-10-16T13:48:42;2.58;;;0.60;;
54959;SDS011;40860;51.710;8.736;2022-10-16T13:52:47;3.38;;;0.73;;
54959;SDS011;40860;51.710;8.736;2022-10-16T13:56:50;1.75;;;0.50;;
54959;SDS011;40860;51.710;8.736;2022-10-16T14:01:15;2.38;;;0.70;;
54959;SDS011;40860;51.710;8.736;2022-10-16T14:05:20;2.90;;;0.77;;
54959;SDS011;40860;51.710;8.736;2022-10-16T14:09:25;2.53;;;0.70;;
54959;SDS011;40860;51.710;8.736;2022-10-16T14:13:31;1.30;;;0.70;;
54959;SDS011;40860;51.710;8.736;2022-10-16T14:17:36;3.45;;;0.57;;
54959;SDS011;40860;51.710;8.736;2022-10-16T14:21:45;2.50;;;0.90;;
54959;SDS011;40860;51.710;8.736;2022-10-16T14:25:50;1.80;;;1.38;;
54959;SDS011;40860;51.710;8.736;2022-10-16T14:30:03;0.85;;;0.60;;
54959;SDS011;40860;51.710;8.736;2022-10-16T14:34:28;1.90;;;0.50;;
54959;SDS011;40860;51.710;8.736;2022-10-16T14:38:34;1.73;;;0.70;;
54959;SDS011;40860;51.710;8.736;2022-10-16T14:42:38;2.90;;;0.80;;
54959;SDS011;40860;51.710;8.736;2022-10-16T14:46:46;2.70;;;0.80;;
54959;SDS011;40860;51.710;8.736;2022-10-16T14:50:49;2.13;;;0.52;;
54959;SDS011;40860;51.710;8.736;2022-10-16T14:54:52;0.95;;;0.40;;
54959;SDS011;40860;51.710;8.736;2022-10-16T14:58:57;2.55;;;0.80;;
54959;SDS011;40860;51.710;8.736;2022-10-16T15:03:00;2.13;;;0.70;;
54959;SDS011;40860;51.710;8.736;2022-10-16T15:07:03;2.30;;;0.80;;
54959;SDS011;40860;51.710;8.736;2022-10-16T15:11:07;2.03;;;0.63;;
54959;SDS011;40860;51.710;8.736;2022-10-16T15:15:23;1.58;;;0.55;;
54959;SDS011;40860;51.710;8.736;2022-10-16T15:19:30;1.70;;;0.57;;
54959;SDS011;40860;51.710;8.736;2022-10-16T15:23:33;3.03;;;1.13;;
54959;SDS011;40860;51.710;8.736;2022-10-16T15:27:36;2.58;;;0.88;;
54959;SDS011;40860;51.710;8.736;2022-10-16T15:31:42;1.58;;;0.80;;
54959;SDS011;40860;51.710;8.736;2022-10-16T15:35:48;1.10;;;1.00;;
54959;SDS011;40860;51.710;8.736;2022-10-16T15:39:52;2.28;;;1.30;;
54959;SDS011;40860;51.710;8.736;2022-10-16T15:43:56;2.10;;;1.20;;
54959;SDS011;40860;51.710;8.736;2022-10-16T15:48:01;2.58;;;1.30;;
54959;SDS011;40860;51.710;8.736;2022-10-16T15:52:05;4.60;;;1.95;;
54959;SDS011;40860;51.710;8.736;2022-10-16T15:56:10;15.55;;;10.27;;
54959;SDS011;40860;51.710;8.736;2022-10-16T16:00:14;10.35;;;6.05;;
54959;SDS011;40860;51.710;8.736;2022-10-16T16:04:19;2.22;;;1.20;;
54959;SDS011;40860;51.710;8.736;2022-10-16T16:08:42;4.07;;;2.72;;
54959;SDS011;40860;51.710;8.736;2022-10-16T16:12:45;3.38;;;2.72;;
54959;SDS011;40860;51.710;8.736;2022-10-16T16:16:52;5.05;;;2.30;;
54959;SDS011;40860;51.710;8.736;2022-10-16T16:20:57;3.20;;;1.85;;
54959;SDS011;40860;51.710;8.736;2022-10-16T16:25:00;7.20;;;2.05;;
54959;SDS011;40860;51.710;8.736;2022-10-16T16:29:03;4.10;;;2.10;;
54959;SDS011;40860;51.710;8.736;2022-10-16T16:33:06;4.53;;;2.60;;
54959;SDS011;40860;51.710;8.736;2022-10-16T16:37:10;5.65;;;2.90;;
54959;SDS011;40860;51.710;8.736;2022-10-16T16:41:13;5.40;;;3.05;;
54959;SDS011;40860;51.710;8.736;2022-10-16T16:45:18;6.30;;;3.72;;
54959;SDS011;40860;51.710;8.736;2022-10-16T16:49:21;6.07;;;4.60;;
54959;SDS011;40860;51.710;8.736;2022-10-16T16:53:25;10.07;;;6.10;;
54959;SDS011;40860;51.710;8.736;2022-10-16T16:57:28;12.48;;;7.45;;
54959;SDS011;40860;51.710;8.736;2022-10-16T17:01:31;14.40;;;9.95;;
54959;SDS011;40860;51.710;8.736;2022-10-16T17:05:34;11.10;;;7.03;;
54959;SDS011;40860;51.710;8.736;2022-10-16T17:09:38;8.23;;;5.57;;
54959;SDS011;40860;51.710;8.736;2022-10-16T17:13:41;9.43;;;6.93;;
54959;SDS011;40860;51.710;8.736;2022-10-16T17:17:44;8.18;;;6.35;;
54959;SDS011;40860;51.710;8.736;2022-10-16T17:21:47;9.43;;;5.53;;
54959;SDS011;40860;51.710;8.736;2022-10-16T17:25:52;6.57;;;4.55;;
54959;SDS011;40860;51.710;8.736;2022-10-16T17:29:56;7.25;;;3.80;;
54959;SDS011;40860;51.710;8.736;2022-10-16T17:33:59;5.00;;;3.83;;
54959;SDS011;40860;51.710;8.736;2022-10-16T17:38:03;5.10;;;2.47;;
54959;SDS011;40860;51.710;8.736;2022-10-16T17:42:07;4.53;;;1.85;;
54959;SDS011;40860;51.710;8.736;2022-10-16T17:46:10;4.55;;;2.80;;
54959;SDS011;40860;51.710;8.736;2022-10-16T17:50:14;2.20;;;2.00;;
54959;SDS011;40860;51.710;8.736;2022-10-16T17:54:17;2.33;;;1.90;;
54959;SDS011;40860;51.710;8.736;2022-10-16T17:58:22;2.20;;;1.02;;
54959;SDS011;40860;51.710;8.736;2022-10-16T18:02:25;4.72;;;0.98;;
54959;SDS011;40860;51.710;8.736;2022-10-16T18:06:28;4.07;;;1.50;;
54959;SDS011;40860;51.710;8.736;2022-10-16T18:10:33;2.60;;;1.17;;
54959;SDS011;40860;51.710;8.736;2022-10-16T18:14:37;1.25;;;1.02;;
54959;SDS011;40860;51.710;8.736;2022-10-16T18:18:41;2.28;;;1.33;;
54959;SDS011;40860;51.710;8.736;2022-10-16T18:22:45;1.73;;;1.50;;
54959;SDS011;40860;51.710;8.736;2022-10-16T18:26:48;3.85;;;1.98;;
54959;SDS011;40860;51.710;8.736;2022-10-16T18:30:55;2.72;;;1.48;;
54959;SDS011;40860;51.710;8.736;2022-10-16T18:34:59;4.82;;;1.77;;
54959;SDS011;40860;51.710;8.736;2022-10-16T18:39:03;4.95;;;1.60;;
54959;SDS011;40860;51.710;8.736;2022-10-16T18:43:09;3.17;;;1.77;;
54959;SDS011;40860;51.710;8.736;2022-10-16T18:47:14;1.45;;;1.35;;
54959;SDS011;40860;51.710;8.736;2022-10-16T18:51:18;1.63;;;1.50;;
54959;SDS011;40860;51.710;8.736;2022-10-16T18:55:24;1.38;;;1.27;;
54959;SDS011;40860;51.710;8.736;2022-10-16T18:59:31;1.90;;;1.40;;
54959;SDS011;40860;51.710;8.736;2022-10-16T19:03:35;2.47;;;1.40;;
54959;SDS011;40860;51.710;8.736;2022-10-16T19:07:38;2.70;;;1.35;;
54959;SDS011;40860;51.710;8.736;2022-10-16T19:11:43;1.90;;;1.10;;
54959;SDS011;40860;51.710;8.736;2022-10-16T19:15:46;1.90;;;1.40;;
54959;SDS011;40860;51.710;8.736;2022-10-16T19:20:00;2.58;;;1.52;;
54959;SDS011;40860;51.710;8.736;2022-10-16T19:24:03;3.97;;;1.55;;
54959;SDS011;40860;51.710;8.736;2022-10-16T19:28:06;3.10;;;1.48;;
54959;SDS011;40860;51.710;8.736;2022-10-16T19:32:09;2.85;;;1.20;;
54959;SDS011;40860;51.710;8.736;2022-10-16T19:36:13;2.72;;;1.13;;
54959;SDS011;40860;51.710;8.736;2022-10-16T19:40:18;2.25;;;1.20;;
54959;SDS011;40860;51.710;8.736;2022-10-16T19:44:21;1.77;;;1.35;;
54959;SDS011;40860;51.710;8.736;2022-10-16T19:48:23;2.88;;;0.70;;
54959;SDS011;40860;51.710;8.736;2022-10-16T19:52:28;1.33;;;0.60;;
54959;SDS011;40860;51.710;8.736;2022-10-16T19:56:31;2.92;;;0.88;;
54959;SDS011;40860;51.710;8.736;2022-10-16T20:00:35;3.42;;;0.90;;
54959;SDS011;40860;51.710;8.736;2022-10-16T20:04:42;4.53;;;1.25;;
54959;SDS011;40860;51.710;8.736;2022-10-16T20:08:47;2.33;;;1.20;;
54959;SDS011;40860;51.710;8.736;2022-10-16T20:12:52;2.83;;;2.53;;
54959;SDS011;40860;51.710;8.736;2022-10-16T20:16:55;2.03;;;1.60;;
54959;SDS011;40860;51.710;8.736;2022-10-16T20:20:58;4.22;;;1.20;;
54959;SDS011;40860;51.710;8.736;2022-10-16T20:25:02;1.95;;;1.10;;
54959;SDS011;40860;51.710;8.736;2022-10-16T20:29:10;2.90;;;1.30;;
54959;SDS011;40860;51.710;8.736;2022-10-16T20:33:13;3.28;;;1.75;;
54959;SDS011;40860;51.710;8.736;2022-10-16T20:37:17;3.67;;;2.20;;
54959;SDS011;40860;51.710;8.736;2022-10-16T20:41:21;5.55;;;2.60;;
54959;SDS011;40860;51.710;8.736;2022-10-16T20:45:24;3.22;;;2.28;;
54959;SDS011;40860;51.710;8.736;2022-10-16T20:49:27;3.03;;;2.67;;
54959;SDS011;40860;51.710;8.736;2022-10-16T20:53:41;3.83;;;3.30;;
54959;SDS011;40860;51.710;8.736;2022-10-16T20:57:45;3.17;;;2.47;;
54959;SDS011;40860;51.710;8.736;2022-10-16T21:01:48;4.45;;;2.75;;
54959;SDS011;40860;51.710;8.736;2022-10-16T21:05:51;3.28;;;2.97;;
54959;SDS011;40860;51.710;8.736;2022-10-16T21:10:00;4.13;;;2.90;;
54959;SDS011;40860;51.710;8.736;2022-10-16T21:14:05;5.00;;;4.03;;
54959;SDS011;40860;51.710;8.736;2022-10-16T21:18:09;7.55;;;6.03;;
54959;SDS011;40860;51.710;8.736;2022-10-16T21:22:12;5.40;;;3.88;;
54959;SDS011;40860;51.710;8.736;2022-10-16T21:26:15;6.22;;;3.55;;
54959;SDS011;40860;51.710;8.736;2022-10-16T21:30:22;3.90;;;3.00;;
54959;SDS011;40860;51.710;8.736;2022-10-16T21:34:25;3.20;;;2.90;;
54959;SDS011;40860;51.710;8.736;2022-10-16T21:38:28;6.18;;;3.00;;
54959;SDS011;40860;51.710;8.736;2022-10-16T21:42:31;3.63;;;2.97;;
54959;SDS011;40860;51.710;8.736;2022-10-16T21:46:36;4.47;;;3.33;;
54959;SDS011;40860;51.710;8.736;2022-10-16T21:50:46;5.13;;;3.28;;
54959;SDS011;40860;51.710;8.736;2022-10-16T21:54:49;4.57;;;3.53;;
54959;SDS011;40860;51.710;8.736;2022-10-16T21:58:52;5.10;;;4.35;;
54959;SDS011;40860;51.710;8.736;2022-10-16T22:02:56;5.07;;;3.35;;
54959;SDS011;40860;51.710;8.736;2022-10-16T22:07:00;4.80;;;3.20;;
54959;SDS011;40860;51.710;8.736;2022-10-16T22:11:03;3.60;;;3.30;;
54959;SDS011;40860;51.710;8.736;2022-10-16T22:15:08;4.78;;;3.28;;
54959;SDS011;40860;51.710;8.736;2022-10-16T22:19:13;7.57;;;3.33;;
54959;SDS011;40860;51.710;8.736;2022-10-16T22:23:19;3.92;;;3.50;;
54959;SDS011;40860;51.710;8.736;2022-10-16T22:27:22;5.40;;;3.92;;
54959;SDS011;40860;51.710;8.736;2022-10-16T22:31:25;4.28;;;3.65;;
54959;SDS011;40860;51.710;8.736;2022-10-16T22:35:30;6.30;;;3.70;;
54959;SDS011;40860;51.710;8.736;2022-10-16T22:39:36;5.22;;;4.18;;
54959;SDS011;40860;51.710;8.736;2022-10-16T22:43:40;6.68;;;4.63;;
54959;SDS011;40860;51.710;8.736;2022-10-16T22:47:44;4.68;;;4.28;;
54959;SDS011;40860;51.710;8.736;2022-10-16T22:51:48;5.45;;;4.05;;
54959;SDS011;40860;51.710;8.736;2022-10-16T22:55:56;5.75;;;4.35;;
54959;SDS011;40860;51.710;8.736;2022-10-16T22:59:59;4.57;;;4.13;;
54959;SDS011;40860;51.710;8.736;2022-10-16T23:04:02;6.03;;;5.18;;
54959;SDS011;40860;51.710;8.736;2022-10-16T23:08:06;7.43;;;5.60;;
54959;SDS011;40860;51.710;8.736;2022-10-16T23:12:09;8.38;;;6.20;;
54959;SDS011;40860;51.710;8.736;2022-10-16T23:16:13;7.35;;;5.88;;
54959;SDS011;40860;51.710;8.736;2022-10-16T23:20:16;6.35;;;5.75;;
54959;SDS011;40860;51.710;8.736;2022-10-16T23:24:21;6.07;;;5.55;;
54959;SDS011;40860;51.710;8.736;2022-10-16T23:28:23;8.27;;;6.15;;
54959;SDS011;40860;51.710;8.736;2022-10-16T23:32:26;7.97;;;6.82;;
54959;SDS011;40860;51.710;8.736;2022-10-16T23:36:30;8.57;;;6.40;;
54959;SDS011;40860;51.710;8.736;2022-10-16T23:40:34;7.00;;;6.30;;
54959;SDS011;40860;51.710;8.736;2022-10-16T23:44:37;7.45;;;6.60;;
54959;SDS011;40860;51.710;8.736;2022-10-16T23:48:40;7.97;;;6.07;;
54959;SDS011;40860;51.710;8.736;2022-10-16T23:52:43;5.68;;;5.18;;
54959;SDS011;40860;51.710;8.736;2022-10-16T23:56:47;6.60;;;5.60;;
